sensor_id;sensor_type;location;lat;lon;timestamp;P1;durP1;ratioP1;P2;durP2;ratioP2
3463;SDS011;3551;41.578;24.706;2022-12-11T02:39:01;5.13;;;1.20;;
3463;SDS011;3551;41.578;24.706;2022-12-11T02:41:29;2.60;;;1.00;;
3463;SDS011;3551;41.578;24.706;2022-12-11T02:43:59;5.97;;;1.20;;
3463;SDS011;3551;41.578;24.706;2022-12-11T02:46:29;5.27;;;1.20;;
3463;SDS011;3551;41.578;24.706;2022-12-11T02:48:59;2.30;;;1.10;;
3463;SDS011;3551;41.578;24.706;2022-12-11T02:51:30;3.57;;;0.97;;
3463;SDS011;3551;41.578;24.706;2022-12-11T02:54:02;3.10;;;0.97;;
3463;SDS011;3551;41.578;24.706;2022-12-11T02:56:35;5.37;;;1.20;;
3463;SDS011;3551;41.578;24.706;2022-12-11T02:59:08;6.67;;;1.30;;
3463;SDS011;3551;41.578;24.706;2022-12-11T03:01:39;4.27;;;1.17;;
3463;SDS011;3551;41.578;24.706;2022-12-11T03:04:07;3.17;;;1.17;;
3463;SDS011;3551;41.578;24.706;2022-12-11T03:06:35;3.27;;;1.27;;
3463;SDS011;3551;41.578;24.706;2022-12-11T03:09:06;5.57;;;1.10;;
3463;SDS011;3551;41.578;24.706;2022-12-11T03:11:34;6.60;;;1.80;;
3463;SDS011;3551;41.578;24.706;2022-12-11T03:14:01;3.40;;;1.10;;
3463;SDS011;3551;41.578;24.706;2022-12-11T03:16:29;4.10;;;1.27;;
3463;SDS011;3551;41.578;24.706;2022-12-11T03:19:01;8.67;;;1.20;;
3463;SDS011;3551;41.578;24.706;2022-12-11T03:21:39;5.80;;;1.47;;
3463;SDS011;3551;41.578;24.706;2022-12-11T03:24:13;8.03;;;1.20;;
3463;SDS011;3551;41.578;24.706;2022-12-11T03:26:46;3.00;;;1.40;;
3463;SDS011;3551;41.578;24.706;2022-12-11T03:29:19;3.40;;;1.63;;
3463;SDS011;3551;41.578;24.706;2022-12-11T03:31:52;3.60;;;1.33;;
3463;SDS011;3551;41.578;24.706;2022-12-11T03:34:23;3.53;;;1.60;;
3463;SDS011;3551;41.578;24.706;2022-12-11T03:36:55;7.13;;;1.47;;
3463;SDS011;3551;41.578;24.706;2022-12-11T03:39:26;5.20;;;1.47;;
3463;SDS011;3551;41.578;24.706;2022-12-11T03:41:57;5.20;;;1.70;;
3463;SDS011;3551;41.578;24.706;2022-12-11T03:44:27;7.00;;;1.30;;
3463;SDS011;3551;41.578;24.706;2022-12-11T03:46:55;4.40;;;1.33;;
3463;SDS011;3551;41.578;24.706;2022-12-11T03:49:25;8.63;;;1.60;;
3463;SDS011;3551;41.578;24.706;2022-12-11T03:51:55;5.90;;;1.30;;
3463;SDS011;3551;41.578;24.706;2022-12-11T03:54:26;11.00;;;1.60;;
3463;SDS011;3551;41.578;24.706;2022-12-11T03:56:55;5.30;;;1.80;;
3463;SDS011;3551;41.578;24.706;2022-12-11T03:59:25;4.20;;;2.17;;
3463;SDS011;3551;41.578;24.706;2022-12-11T04:01:52;4.20;;;1.40;;
3463;SDS011;3551;41.578;24.706;2022-12-11T04:04:20;4.30;;;1.60;;
3463;SDS011;3551;41.578;24.706;2022-12-11T04:06:47;5.07;;;1.83;;
3463;SDS011;3551;41.578;24.706;2022-12-11T04:09:14;6.13;;;1.77;;
3463;SDS011;3551;41.578;24.706;2022-12-11T04:11:42;9.70;;;2.07;;
3463;SDS011;3551;41.578;24.706;2022-12-11T04:14:10;8.40;;;1.87;;
3463;SDS011;3551;41.578;24.706;2022-12-11T04:16:56;4.50;;;1.70;;
3463;SDS011;3551;41.578;24.706;2022-12-11T04:19:25;7.90;;;2.10;;
3463;SDS011;3551;41.578;24.706;2022-12-11T04:22:10;4.93;;;1.80;;
3463;SDS011;3551;41.578;24.706;2022-12-11T04:24:52;8.90;;;2.00;;
3463;SDS011;3551;41.578;24.706;2022-12-11T04:27:20;8.67;;;2.20;;
3463;SDS011;3551;41.578;24.706;2022-12-11T04:30:05;5.23;;;1.80;;
3463;SDS011;3551;41.578;24.706;2022-12-11T04:32:35;4.47;;;1.33;;
3463;SDS011;3551;41.578;24.706;2022-12-11T04:35:02;3.57;;;1.40;;
3463;SDS011;3551;41.578;24.706;2022-12-11T04:37:29;11.27;;;1.80;;
3463;SDS011;3551;41.578;24.706;2022-12-11T04:39:56;7.43;;;2.03;;
3463;SDS011;3551;41.578;24.706;2022-12-11T04:42:25;6.03;;;1.20;;
3463;SDS011;3551;41.578;24.706;2022-12-11T04:44:52;6.70;;;2.00;;
3463;SDS011;3551;41.578;24.706;2022-12-11T04:47:18;5.83;;;1.83;;
3463;SDS011;3551;41.578;24.706;2022-12-11T04:49:46;4.53;;;1.53;;
3463;SDS011;3551;41.578;24.706;2022-12-11T04:52:13;10.63;;;2.57;;
3463;SDS011;3551;41.578;24.706;2022-12-11T04:54:40;9.63;;;1.77;;
3463;SDS011;3551;41.578;24.706;2022-12-11T04:57:07;5.60;;;1.40;;
3463;SDS011;3551;41.578;24.706;2022-12-11T04:59:35;5.87;;;1.37;;
3463;SDS011;3551;41.578;24.706;2022-12-11T05:02:02;4.73;;;1.50;;
3463;SDS011;3551;41.578;24.706;2022-12-11T05:04:30;4.70;;;1.30;;
3463;SDS011;3551;41.578;24.706;2022-12-11T05:06:57;6.33;;;1.40;;
3463;SDS011;3551;41.578;24.706;2022-12-11T05:09:25;6.10;;;1.57;;
3463;SDS011;3551;41.578;24.706;2022-12-11T05:11:52;4.47;;;1.50;;
3463;SDS011;3551;41.578;24.706;2022-12-11T05:14:19;4.30;;;1.73;;
3463;SDS011;3551;41.578;24.706;2022-12-11T05:16:48;7.60;;;1.43;;
3463;SDS011;3551;41.578;24.706;2022-12-11T05:19:15;11.90;;;1.77;;
3463;SDS011;3551;41.578;24.706;2022-12-11T05:21:42;6.00;;;1.30;;
3463;SDS011;3551;41.578;24.706;2022-12-11T05:24:09;4.30;;;1.40;;
3463;SDS011;3551;41.578;24.706;2022-12-11T05:26:36;7.63;;;1.53;;
3463;SDS011;3551;41.578;24.706;2022-12-11T05:29:03;6.80;;;1.50;;
3463;SDS011;3551;41.578;24.706;2022-12-11T05:31:30;6.50;;;1.67;;
3463;SDS011;3551;41.578;24.706;2022-12-11T05:33:58;6.00;;;2.10;;
3463;SDS011;3551;41.578;24.706;2022-12-11T05:36:25;8.07;;;2.10;;
3463;SDS011;3551;41.578;24.706;2022-12-11T05:38:54;5.83;;;1.70;;
3463;SDS011;3551;41.578;24.706;2022-12-11T05:41:22;8.77;;;1.43;;
3463;SDS011;3551;41.578;24.706;2022-12-11T05:43:50;9.83;;;1.20;;
3463;SDS011;3551;41.578;24.706;2022-12-11T05:46:18;3.40;;;1.30;;
3463;SDS011;3551;41.578;24.706;2022-12-11T05:48:48;2.70;;;1.30;;
3463;SDS011;3551;41.578;24.706;2022-12-11T05:51:18;4.90;;;1.20;;
3463;SDS011;3551;41.578;24.706;2022-12-11T05:53:46;5.43;;;1.40;;
3463;SDS011;3551;41.578;24.706;2022-12-11T05:56:14;8.03;;;1.40;;
3463;SDS011;3551;41.578;24.706;2022-12-11T05:58:43;3.80;;;1.17;;
3463;SDS011;3551;41.578;24.706;2022-12-11T06:01:14;9.50;;;1.60;;
3463;SDS011;3551;41.578;24.706;2022-12-11T06:03:42;4.13;;;1.60;;
3463;SDS011;3551;41.578;24.706;2022-12-11T06:06:10;5.57;;;1.57;;
3463;SDS011;3551;41.578;24.706;2022-12-11T06:08:38;6.53;;;1.67;;
3463;SDS011;3551;41.578;24.706;2022-12-11T06:11:05;9.13;;;1.63;;
3463;SDS011;3551;41.578;24.706;2022-12-11T06:13:32;12.13;;;1.77;;
3463;SDS011;3551;41.578;24.706;2022-12-11T06:16:00;7.73;;;1.67;;
3463;SDS011;3551;41.578;24.706;2022-12-11T06:18:28;6.30;;;1.57;;
3463;SDS011;3551;41.578;24.706;2022-12-11T06:20:55;5.17;;;1.30;;
3463;SDS011;3551;41.578;24.706;2022-12-11T06:23:22;7.47;;;1.43;;
3463;SDS011;3551;41.578;24.706;2022-12-11T06:25:50;7.03;;;1.53;;
3463;SDS011;3551;41.578;24.706;2022-12-11T06:28:17;5.37;;;1.63;;
3463;SDS011;3551;41.578;24.706;2022-12-11T06:30:44;7.63;;;1.67;;
3463;SDS011;3551;41.578;24.706;2022-12-11T06:33:11;4.47;;;1.83;;
3463;SDS011;3551;41.578;24.706;2022-12-11T06:35:38;5.43;;;1.50;;
3463;SDS011;3551;41.578;24.706;2022-12-11T06:38:06;5.70;;;1.80;;
3463;SDS011;3551;41.578;24.706;2022-12-11T06:40:33;5.30;;;1.70;;
3463;SDS011;3551;41.578;24.706;2022-12-11T06:43:01;4.13;;;1.43;;
3463;SDS011;3551;41.578;24.706;2022-12-11T06:45:28;5.00;;;1.80;;
3463;SDS011;3551;41.578;24.706;2022-12-11T06:47:55;5.07;;;1.50;;
3463;SDS011;3551;41.578;24.706;2022-12-11T06:50:22;5.23;;;1.77;;
3463;SDS011;3551;41.578;24.706;2022-12-11T06:52:49;5.40;;;1.60;;
3463;SDS011;3551;41.578;24.706;2022-12-11T06:55:16;3.77;;;1.40;;
3463;SDS011;3551;41.578;24.706;2022-12-11T06:57:43;2.43;;;1.17;;
3463;SDS011;3551;41.578;24.706;2022-12-11T07:00:12;6.13;;;1.23;;
3463;SDS011;3551;41.578;24.706;2022-12-11T07:02:40;6.63;;;1.57;;
3463;SDS011;3551;41.578;24.706;2022-12-11T07:05:07;4.33;;;1.23;;
3463;SDS011;3551;41.578;24.706;2022-12-11T07:07:34;2.67;;;1.20;;
3463;SDS011;3551;41.578;24.706;2022-12-11T07:10:01;10.70;;;1.10;;
3463;SDS011;3551;41.578;24.706;2022-12-11T07:12:29;3.20;;;1.50;;
3463;SDS011;3551;41.578;24.706;2022-12-11T07:14:55;4.83;;;1.83;;
3463;SDS011;3551;41.578;24.706;2022-12-11T07:17:24;3.90;;;1.20;;
3463;SDS011;3551;41.578;24.706;2022-12-11T07:19:51;6.00;;;1.23;;
3463;SDS011;3551;41.578;24.706;2022-12-11T07:22:18;4.40;;;1.53;;
3463;SDS011;3551;41.578;24.706;2022-12-11T07:24:44;3.40;;;1.37;;
3463;SDS011;3551;41.578;24.706;2022-12-11T07:27:11;9.93;;;1.50;;
3463;SDS011;3551;41.578;24.706;2022-12-11T07:29:39;5.50;;;1.43;;
3463;SDS011;3551;41.578;24.706;2022-12-11T07:32:06;3.50;;;1.10;;
3463;SDS011;3551;41.578;24.706;2022-12-11T07:34:35;5.33;;;1.60;;
3463;SDS011;3551;41.578;24.706;2022-12-11T07:37:02;10.77;;;2.53;;
3463;SDS011;3551;41.578;24.706;2022-12-11T07:39:29;5.33;;;1.37;;
3463;SDS011;3551;41.578;24.706;2022-12-11T07:41:56;4.87;;;1.40;;
3463;SDS011;3551;41.578;24.706;2022-12-11T07:44:23;7.70;;;1.73;;
3463;SDS011;3551;41.578;24.706;2022-12-11T07:46:50;4.13;;;1.40;;
3463;SDS011;3551;41.578;24.706;2022-12-11T07:49:17;10.17;;;1.67;;
3463;SDS011;3551;41.578;24.706;2022-12-11T07:51:45;8.97;;;1.97;;
3463;SDS011;3551;41.578;24.706;2022-12-11T07:54:13;4.27;;;1.50;;
3463;SDS011;3551;41.578;24.706;2022-12-11T07:56:41;10.93;;;2.60;;
3463;SDS011;3551;41.578;24.706;2022-12-11T07:59:08;4.60;;;1.27;;
3463;SDS011;3551;41.578;24.706;2022-12-11T08:01:37;5.90;;;1.30;;
3463;SDS011;3551;41.578;24.706;2022-12-11T08:04:05;9.33;;;2.07;;
3463;SDS011;3551;41.578;24.706;2022-12-11T08:06:34;4.57;;;1.50;;
3463;SDS011;3551;41.578;24.706;2022-12-11T08:09:04;4.47;;;1.20;;
3463;SDS011;3551;41.578;24.706;2022-12-11T08:11:32;6.20;;;1.60;;
3463;SDS011;3551;41.578;24.706;2022-12-11T08:13:59;5.70;;;1.67;;
3463;SDS011;3551;41.578;24.706;2022-12-11T08:16:26;6.50;;;1.50;;
3463;SDS011;3551;41.578;24.706;2022-12-11T08:18:53;3.90;;;1.40;;
3463;SDS011;3551;41.578;24.706;2022-12-11T08:21:21;5.00;;;1.60;;
3463;SDS011;3551;41.578;24.706;2022-12-11T08:23:49;2.90;;;1.23;;
3463;SDS011;3551;41.578;24.706;2022-12-11T08:26:19;5.90;;;1.63;;
3463;SDS011;3551;41.578;24.706;2022-12-11T08:28:48;5.20;;;1.63;;
3463;SDS011;3551;41.578;24.706;2022-12-11T08:31:15;8.13;;;1.40;;
3463;SDS011;3551;41.578;24.706;2022-12-11T08:33:44;7.97;;;1.47;;
3463;SDS011;3551;41.578;24.706;2022-12-11T08:36:12;4.23;;;1.73;;
3463;SDS011;3551;41.578;24.706;2022-12-11T08:38:40;4.80;;;2.43;;
3463;SDS011;3551;41.578;24.706;2022-12-11T08:41:08;5.63;;;2.60;;
3463;SDS011;3551;41.578;24.706;2022-12-11T08:43:37;4.43;;;2.10;;
3463;SDS011;3551;41.578;24.706;2022-12-11T08:46:04;7.47;;;2.80;;
3463;SDS011;3551;41.578;24.706;2022-12-11T08:48:32;6.43;;;1.80;;
3463;SDS011;3551;41.578;24.706;2022-12-11T08:50:59;6.50;;;1.63;;
3463;SDS011;3551;41.578;24.706;2022-12-11T08:53:27;3.63;;;1.40;;
3463;SDS011;3551;41.578;24.706;2022-12-11T08:55:59;2.93;;;1.40;;
3463;SDS011;3551;41.578;24.706;2022-12-11T08:58:26;4.80;;;1.17;;
3463;SDS011;3551;41.578;24.706;2022-12-11T09:00:55;7.30;;;1.33;;
3463;SDS011;3551;41.578;24.706;2022-12-11T09:03:22;9.40;;;1.37;;
3463;SDS011;3551;41.578;24.706;2022-12-11T09:05:49;10.30;;;1.90;;
3463;SDS011;3551;41.578;24.706;2022-12-11T09:08:16;4.73;;;1.93;;
3463;SDS011;3551;41.578;24.706;2022-12-11T09:10:43;7.30;;;1.80;;
3463;SDS011;3551;41.578;24.706;2022-12-11T09:13:10;6.60;;;1.37;;
3463;SDS011;3551;41.578;24.706;2022-12-11T09:15:38;8.77;;;2.23;;
3463;SDS011;3551;41.578;24.706;2022-12-11T09:18:07;5.37;;;1.50;;
3463;SDS011;3551;41.578;24.706;2022-12-11T09:20:34;3.87;;;1.27;;
3463;SDS011;3551;41.578;24.706;2022-12-11T09:23:01;6.33;;;2.40;;
3463;SDS011;3551;41.578;24.706;2022-12-11T09:25:28;5.30;;;1.40;;
3463;SDS011;3551;41.578;24.706;2022-12-11T09:27:55;5.40;;;1.87;;
3463;SDS011;3551;41.578;24.706;2022-12-11T09:30:22;3.40;;;1.37;;
3463;SDS011;3551;41.578;24.706;2022-12-11T09:32:49;4.93;;;2.00;;
3463;SDS011;3551;41.578;24.706;2022-12-11T09:35:18;11.20;;;1.83;;
3463;SDS011;3551;41.578;24.706;2022-12-11T09:37:45;6.80;;;1.67;;
3463;SDS011;3551;41.578;24.706;2022-12-11T09:40:12;5.87;;;1.50;;
3463;SDS011;3551;41.578;24.706;2022-12-11T09:42:44;7.30;;;1.80;;
3463;SDS011;3551;41.578;24.706;2022-12-11T09:45:16;5.67;;;1.40;;
3463;SDS011;3551;41.578;24.706;2022-12-11T09:47:43;9.13;;;1.50;;
3463;SDS011;3551;41.578;24.706;2022-12-11T09:50:14;3.00;;;1.43;;
3463;SDS011;3551;41.578;24.706;2022-12-11T09:52:49;4.73;;;1.77;;
3463;SDS011;3551;41.578;24.706;2022-12-11T09:55:29;5.93;;;1.60;;
3463;SDS011;3551;41.578;24.706;2022-12-11T09:58:01;6.00;;;1.60;;
3463;SDS011;3551;41.578;24.706;2022-12-11T10:00:36;4.50;;;1.73;;
3463;SDS011;3551;41.578;24.706;2022-12-11T10:06:14;5.83;;;1.70;;
3463;SDS011;3551;41.578;24.706;2022-12-11T10:08:50;4.53;;;1.20;;
3463;SDS011;3551;41.578;24.706;2022-12-11T10:11:30;4.70;;;1.50;;
3463;SDS011;3551;41.578;24.706;2022-12-11T10:14:09;3.10;;;1.60;;
3463;SDS011;3551;41.578;24.706;2022-12-11T10:16:44;13.63;;;2.00;;
3463;SDS011;3551;41.578;24.706;2022-12-11T10:19:16;6.73;;;2.20;;
3463;SDS011;3551;41.578;24.706;2022-12-11T10:21:46;4.87;;;1.80;;
3463;SDS011;3551;41.578;24.706;2022-12-11T10:24:19;6.33;;;1.77;;
3463;SDS011;3551;41.578;24.706;2022-12-11T10:26:51;8.73;;;1.40;;
3463;SDS011;3551;41.578;24.706;2022-12-11T10:29:22;5.50;;;1.80;;
3463;SDS011;3551;41.578;24.706;2022-12-11T10:31:52;4.50;;;1.50;;
3463;SDS011;3551;41.578;24.706;2022-12-11T10:34:27;7.00;;;1.80;;
3463;SDS011;3551;41.578;24.706;2022-12-11T10:37:00;6.73;;;1.60;;
3463;SDS011;3551;41.578;24.706;2022-12-11T10:39:32;4.37;;;1.80;;
3463;SDS011;3551;41.578;24.706;2022-12-11T10:41:58;5.90;;;1.50;;
3463;SDS011;3551;41.578;24.706;2022-12-11T10:44:29;3.63;;;1.97;;
3463;SDS011;3551;41.578;24.706;2022-12-11T10:47:00;5.13;;;2.17;;
3463;SDS011;3551;41.578;24.706;2022-12-11T10:49:30;7.07;;;1.63;;
3463;SDS011;3551;41.578;24.706;2022-12-11T10:51:59;6.63;;;2.60;;
3463;SDS011;3551;41.578;24.706;2022-12-11T10:54:32;5.93;;;1.87;;
3463;SDS011;3551;41.578;24.706;2022-12-11T10:57:03;8.00;;;1.47;;
3463;SDS011;3551;41.578;24.706;2022-12-11T10:59:33;4.63;;;1.60;;
3463;SDS011;3551;41.578;24.706;2022-12-11T11:04:32;5.30;;;1.60;;
3463;SDS011;3551;41.578;24.706;2022-12-11T11:07:09;4.27;;;1.80;;
3463;SDS011;3551;41.578;24.706;2022-12-11T11:09:41;9.47;;;1.90;;
3463;SDS011;3551;41.578;24.706;2022-12-11T11:12:16;2.57;;;1.40;;
3463;SDS011;3551;41.578;24.706;2022-12-11T11:14:44;9.63;;;1.87;;
3463;SDS011;3551;41.578;24.706;2022-12-11T11:17:13;4.60;;;1.77;;
3463;SDS011;3551;41.578;24.706;2022-12-11T11:19:44;2.47;;;1.10;;
3463;SDS011;3551;41.578;24.706;2022-12-11T11:22:13;5.80;;;1.73;;
3463;SDS011;3551;41.578;24.706;2022-12-11T11:24:44;3.60;;;1.20;;
3463;SDS011;3551;41.578;24.706;2022-12-11T11:27:20;5.50;;;2.43;;
3463;SDS011;3551;41.578;24.706;2022-12-11T11:29:53;9.30;;;2.00;;
3463;SDS011;3551;41.578;24.706;2022-12-11T11:32:23;3.17;;;1.50;;
3463;SDS011;3551;41.578;24.706;2022-12-11T11:35:04;3.70;;;1.20;;
3463;SDS011;3551;41.578;24.706;2022-12-11T11:37:41;4.87;;;1.50;;
3463;SDS011;3551;41.578;24.706;2022-12-11T11:40:15;8.13;;;1.50;;
3463;SDS011;3551;41.578;24.706;2022-12-11T11:42:48;4.80;;;1.50;;
3463;SDS011;3551;41.578;24.706;2022-12-11T11:45:25;7.30;;;1.57;;
3463;SDS011;3551;41.578;24.706;2022-12-11T11:47:58;3.50;;;1.50;;
3463;SDS011;3551;41.578;24.706;2022-12-11T11:50:31;7.50;;;1.80;;
3463;SDS011;3551;41.578;24.706;2022-12-11T11:53:02;4.70;;;1.97;;
3463;SDS011;3551;41.578;24.706;2022-12-11T11:55:38;4.77;;;1.80;;
3463;SDS011;3551;41.578;24.706;2022-12-11T11:58:11;4.47;;;1.73;;
3463;SDS011;3551;41.578;24.706;2022-12-11T12:00:43;2.67;;;1.50;;
3463;SDS011;3551;41.578;24.706;2022-12-11T12:03:11;8.60;;;3.03;;
3463;SDS011;3551;41.578;24.706;2022-12-11T12:05:42;6.47;;;2.30;;
3463;SDS011;3551;41.578;24.706;2022-12-11T12:08:16;8.83;;;2.30;;
3463;SDS011;3551;41.578;24.706;2022-12-11T12:10:54;6.80;;;1.83;;
3463;SDS011;3551;41.578;24.706;2022-12-11T12:13:28;6.00;;;1.80;;
3463;SDS011;3551;41.578;24.706;2022-12-11T12:16:03;9.80;;;3.80;;
3463;SDS011;3551;41.578;24.706;2022-12-11T12:18:38;12.50;;;5.07;;
3463;SDS011;3551;41.578;24.706;2022-12-11T12:21:18;10.93;;;4.17;;
3463;SDS011;3551;41.578;24.706;2022-12-11T12:23:58;8.80;;;4.50;;
3463;SDS011;3551;41.578;24.706;2022-12-11T12:26:36;10.87;;;4.37;;
3463;SDS011;3551;41.578;24.706;2022-12-11T12:29:11;15.87;;;6.50;;
3463;SDS011;3551;41.578;24.706;2022-12-11T12:31:50;12.47;;;5.10;;
3463;SDS011;3551;41.578;24.706;2022-12-11T12:34:31;9.13;;;4.93;;
3463;SDS011;3551;41.578;24.706;2022-12-11T12:37:09;9.00;;;4.47;;
3463;SDS011;3551;41.578;24.706;2022-12-11T12:39:48;9.40;;;3.70;;
3463;SDS011;3551;41.578;24.706;2022-12-11T12:42:25;6.73;;;2.97;;
3463;SDS011;3551;41.578;24.706;2022-12-11T12:45:02;9.83;;;3.70;;
3463;SDS011;3551;41.578;24.706;2022-12-11T12:47:50;5.43;;;3.40;;
3463;SDS011;3551;41.578;24.706;2022-12-11T12:50:19;9.20;;;3.67;;
3463;SDS011;3551;41.578;24.706;2022-12-11T12:52:48;7.17;;;3.17;;
3463;SDS011;3551;41.578;24.706;2022-12-11T12:55:18;7.40;;;4.00;;
3463;SDS011;3551;41.578;24.706;2022-12-11T12:57:50;13.73;;;4.00;;
3463;SDS011;3551;41.578;24.706;2022-12-11T13:00:27;6.90;;;3.90;;
3463;SDS011;3551;41.578;24.706;2022-12-11T13:02:55;7.07;;;4.17;;
3463;SDS011;3551;41.578;24.706;2022-12-11T13:05:24;7.13;;;4.37;;
3463;SDS011;3551;41.578;24.706;2022-12-11T13:07:53;7.47;;;4.07;;
3463;SDS011;3551;41.578;24.706;2022-12-11T13:10:24;12.13;;;6.00;;
3463;SDS011;3551;41.578;24.706;2022-12-11T13:12:56;10.53;;;5.53;;
3463;SDS011;3551;41.578;24.706;2022-12-11T13:15:35;11.20;;;6.60;;
3463;SDS011;3551;41.578;24.706;2022-12-11T13:18:28;15.30;;;9.53;;
3463;SDS011;3551;41.578;24.706;2022-12-11T13:20:59;19.07;;;9.37;;
3463;SDS011;3551;41.578;24.706;2022-12-11T13:23:27;19.30;;;10.60;;
3463;SDS011;3551;41.578;24.706;2022-12-11T13:25:56;16.50;;;10.60;;
3463;SDS011;3551;41.578;24.706;2022-12-11T13:28:29;20.00;;;10.80;;
3463;SDS011;3551;41.578;24.706;2022-12-11T13:31:00;17.83;;;11.00;;
3463;SDS011;3551;41.578;24.706;2022-12-11T13:33:39;18.13;;;9.27;;
3463;SDS011;3551;41.578;24.706;2022-12-11T13:39:00;27.37;;;16.10;;
3463;SDS011;3551;41.578;24.706;2022-12-11T13:41:31;23.37;;;13.60;;
3463;SDS011;3551;41.578;24.706;2022-12-11T13:44:00;18.60;;;10.43;;
3463;SDS011;3551;41.578;24.706;2022-12-11T13:46:30;15.87;;;5.77;;
3463;SDS011;3551;41.578;24.706;2022-12-11T13:49:02;9.30;;;5.70;;
3463;SDS011;3551;41.578;24.706;2022-12-11T13:51:32;14.40;;;7.23;;
3463;SDS011;3551;41.578;24.706;2022-12-11T13:54:05;10.47;;;6.10;;
3463;SDS011;3551;41.578;24.706;2022-12-11T13:56:39;11.77;;;6.33;;
3463;SDS011;3551;41.578;24.706;2022-12-11T13:59:17;18.43;;;10.23;;
3463;SDS011;3551;41.578;24.706;2022-12-11T14:01:49;26.10;;;13.50;;
3463;SDS011;3551;41.578;24.706;2022-12-11T14:04:19;51.50;;;29.20;;
3463;SDS011;3551;41.578;24.706;2022-12-11T14:06:48;40.37;;;24.87;;
3463;SDS011;3551;41.578;24.706;2022-12-11T14:09:15;33.57;;;20.07;;
3463;SDS011;3551;41.578;24.706;2022-12-11T14:11:46;43.50;;;19.77;;
3463;SDS011;3551;41.578;24.706;2022-12-11T14:14:17;28.17;;;18.80;;
3463;SDS011;3551;41.578;24.706;2022-12-11T14:16:47;16.03;;;9.10;;
3463;SDS011;3551;41.578;24.706;2022-12-11T14:19:16;25.87;;;14.37;;
3463;SDS011;3551;41.578;24.706;2022-12-11T14:21:55;11.93;;;7.47;;
3463;SDS011;3551;41.578;24.706;2022-12-11T14:24:24;5.80;;;2.13;;
3463;SDS011;3551;41.578;24.706;2022-12-11T14:26:51;6.60;;;3.70;;
3463;SDS011;3551;41.578;24.706;2022-12-11T14:29:23;4.23;;;1.97;;
3463;SDS011;3551;41.578;24.706;2022-12-11T14:31:52;3.10;;;1.80;;
3463;SDS011;3551;41.578;24.706;2022-12-11T14:34:21;7.33;;;1.90;;
3463;SDS011;3551;41.578;24.706;2022-12-11T14:36:51;4.00;;;2.20;;
3463;SDS011;3551;41.578;24.706;2022-12-11T14:39:22;3.07;;;1.50;;
3463;SDS011;3551;41.578;24.706;2022-12-11T14:41:53;3.30;;;1.70;;
3463;SDS011;3551;41.578;24.706;2022-12-11T14:44:26;3.43;;;1.50;;
3463;SDS011;3551;41.578;24.706;2022-12-11T14:46:57;2.00;;;1.20;;
3463;SDS011;3551;41.578;24.706;2022-12-11T14:49:29;2.97;;;1.27;;
3463;SDS011;3551;41.578;24.706;2022-12-11T14:52:08;2.63;;;1.60;;
3463;SDS011;3551;41.578;24.706;2022-12-11T14:54:43;3.73;;;1.80;;
3463;SDS011;3551;41.578;24.706;2022-12-11T14:57:14;5.70;;;1.30;;
3463;SDS011;3551;41.578;24.706;2022-12-11T14:59:45;2.50;;;1.30;;
3463;SDS011;3551;41.578;24.706;2022-12-11T15:02:23;1.97;;;1.17;;
3463;SDS011;3551;41.578;24.706;2022-12-11T15:04:59;2.00;;;1.10;;
3463;SDS011;3551;41.578;24.706;2022-12-11T15:07:31;4.10;;;1.13;;
3463;SDS011;3551;41.578;24.706;2022-12-11T15:10:00;2.50;;;1.40;;
3463;SDS011;3551;41.578;24.706;2022-12-11T15:12:27;4.87;;;1.30;;
3463;SDS011;3551;41.578;24.706;2022-12-11T15:14:55;2.53;;;1.27;;
3463;SDS011;3551;41.578;24.706;2022-12-11T15:17:25;3.80;;;2.10;;
3463;SDS011;3551;41.578;24.706;2022-12-11T15:19:54;10.10;;;2.20;;
3463;SDS011;3551;41.578;24.706;2022-12-11T15:22:22;4.50;;;1.70;;
3463;SDS011;3551;41.578;24.706;2022-12-11T15:24:56;2.53;;;1.40;;
3463;SDS011;3551;41.578;24.706;2022-12-11T15:27:28;3.10;;;1.20;;
3463;SDS011;3551;41.578;24.706;2022-12-11T15:30:00;2.93;;;1.73;;
3463;SDS011;3551;41.578;24.706;2022-12-11T15:32:27;4.63;;;2.50;;
3463;SDS011;3551;41.578;24.706;2022-12-11T15:34:57;4.20;;;2.70;;
3463;SDS011;3551;41.578;24.706;2022-12-11T15:37:25;5.33;;;2.83;;
3463;SDS011;3551;41.578;24.706;2022-12-11T15:39:55;5.17;;;2.60;;
3463;SDS011;3551;41.578;24.706;2022-12-11T15:42:24;4.87;;;2.17;;
3463;SDS011;3551;41.578;24.706;2022-12-11T15:44:54;3.50;;;1.77;;
3463;SDS011;3551;41.578;24.706;2022-12-11T15:47:22;5.03;;;2.00;;
3463;SDS011;3551;41.578;24.706;2022-12-11T15:49:52;2.73;;;1.30;;
3463;SDS011;3551;41.578;24.706;2022-12-11T15:52:20;2.70;;;1.43;;
3463;SDS011;3551;41.578;24.706;2022-12-11T15:54:47;3.83;;;1.80;;
3463;SDS011;3551;41.578;24.706;2022-12-11T15:57:15;4.80;;;1.97;;
3463;SDS011;3551;41.578;24.706;2022-12-11T15:59:46;9.07;;;4.10;;
3463;SDS011;3551;41.578;24.706;2022-12-11T16:02:15;9.40;;;3.10;;
3463;SDS011;3551;41.578;24.706;2022-12-11T16:04:42;6.53;;;4.13;;
3463;SDS011;3551;41.578;24.706;2022-12-11T16:07:11;10.70;;;6.07;;
3463;SDS011;3551;41.578;24.706;2022-12-11T16:09:42;10.03;;;6.27;;
3463;SDS011;3551;41.578;24.706;2022-12-11T16:12:09;7.60;;;4.70;;
3463;SDS011;3551;41.578;24.706;2022-12-11T16:14:37;8.43;;;5.13;;
3463;SDS011;3551;41.578;24.706;2022-12-11T16:17:06;16.27;;;9.30;;
3463;SDS011;3551;41.578;24.706;2022-12-11T16:19:34;15.67;;;8.60;;
3463;SDS011;3551;41.578;24.706;2022-12-11T16:22:01;10.93;;;7.90;;
3463;SDS011;3551;41.578;24.706;2022-12-11T16:24:29;22.80;;;13.63;;
3463;SDS011;3551;41.578;24.706;2022-12-11T16:26:56;28.00;;;16.47;;
3463;SDS011;3551;41.578;24.706;2022-12-11T16:29:24;15.00;;;9.60;;
3463;SDS011;3551;41.578;24.706;2022-12-11T16:31:51;13.10;;;6.60;;
3463;SDS011;3551;41.578;24.706;2022-12-11T16:34:19;14.33;;;7.80;;
3463;SDS011;3551;41.578;24.706;2022-12-11T16:36:50;14.10;;;6.83;;
3463;SDS011;3551;41.578;24.706;2022-12-11T16:39:19;13.90;;;7.37;;
3463;SDS011;3551;41.578;24.706;2022-12-11T16:41:46;9.80;;;5.87;;
3463;SDS011;3551;41.578;24.706;2022-12-11T16:44:13;14.57;;;7.47;;
3463;SDS011;3551;41.578;24.706;2022-12-11T16:46:44;9.63;;;4.97;;
3463;SDS011;3551;41.578;24.706;2022-12-11T16:49:10;8.40;;;4.50;;
3463;SDS011;3551;41.578;24.706;2022-12-11T16:51:39;7.63;;;3.37;;
3463;SDS011;3551;41.578;24.706;2022-12-11T16:54:07;7.80;;;2.90;;
3463;SDS011;3551;41.578;24.706;2022-12-11T16:56:34;6.53;;;2.50;;
3463;SDS011;3551;41.578;24.706;2022-12-11T16:59:01;5.57;;;2.23;;
3463;SDS011;3551;41.578;24.706;2022-12-11T17:01:28;4.40;;;2.10;;
3463;SDS011;3551;41.578;24.706;2022-12-11T17:03:55;4.07;;;2.57;;
3463;SDS011;3551;41.578;24.706;2022-12-11T17:06:23;6.67;;;3.47;;
3463;SDS011;3551;41.578;24.706;2022-12-11T17:08:52;9.17;;;3.50;;
3463;SDS011;3551;41.578;24.706;2022-12-11T17:11:19;7.13;;;4.30;;
3463;SDS011;3551;41.578;24.706;2022-12-11T17:13:51;6.30;;;3.20;;
3463;SDS011;3551;41.578;24.706;2022-12-11T17:16:19;10.40;;;6.80;;
3463;SDS011;3551;41.578;24.706;2022-12-11T17:18:49;21.23;;;12.77;;
3463;SDS011;3551;41.578;24.706;2022-12-11T17:21:16;13.27;;;8.40;;
3463;SDS011;3551;41.578;24.706;2022-12-11T17:23:45;25.83;;;16.53;;
3463;SDS011;3551;41.578;24.706;2022-12-11T17:26:13;17.30;;;12.40;;
3463;SDS011;3551;41.578;24.706;2022-12-11T17:28:41;19.50;;;12.10;;
3463;SDS011;3551;41.578;24.706;2022-12-11T17:31:09;28.20;;;16.93;;
3463;SDS011;3551;41.578;24.706;2022-12-11T17:33:38;26.63;;;16.80;;
3463;SDS011;3551;41.578;24.706;2022-12-11T17:36:06;28.03;;;16.97;;
3463;SDS011;3551;41.578;24.706;2022-12-11T17:38:34;30.07;;;20.33;;
3463;SDS011;3551;41.578;24.706;2022-12-11T17:41:03;36.37;;;22.23;;
3463;SDS011;3551;41.578;24.706;2022-12-11T17:43:33;37.53;;;21.87;;
3463;SDS011;3551;41.578;24.706;2022-12-11T17:46:00;30.50;;;19.80;;
3463;SDS011;3551;41.578;24.706;2022-12-11T17:48:27;36.90;;;20.60;;
3463;SDS011;3551;41.578;24.706;2022-12-11T17:50:54;26.40;;;14.23;;
3463;SDS011;3551;41.578;24.706;2022-12-11T17:53:21;19.87;;;12.17;;
3463;SDS011;3551;41.578;24.706;2022-12-11T17:55:48;34.43;;;21.80;;
3463;SDS011;3551;41.578;24.706;2022-12-11T17:58:16;38.50;;;22.93;;
3463;SDS011;3551;41.578;24.706;2022-12-11T18:00:47;44.27;;;26.03;;